sensor_id;sensor_type;location;lat;lon;timestamp;temperature;humidity
80279;DHT22;70683;52.492;13.416;2023-07-16T00:00:26;24.70;66.10
80279;DHT22;70683;52.492;13.416;2023-07-16T00:02:53;24.70;66.60
80279;DHT22;70683;52.492;13.416;2023-07-16T00:05:19;24.70;67.20
80279;DHT22;70683;52.492;13.416;2023-07-16T00:07:46;24.70;67.50
80279;DHT22;70683;52.492;13.416;2023-07-16T00:10:13;24.70;67.60
80279;DHT22;70683;52.492;13.416;2023-07-16T00:12:39;24.70;67.90
80279;DHT22;70683;52.492;13.416;2023-07-16T00:15:07;24.70;68.30
80279;DHT22;70683;52.492;13.416;2023-07-16T00:17:34;24.60;68.00
80279;DHT22;70683;52.492;13.416;2023-07-16T00:20:01;24.70;68.20
80279;DHT22;70683;52.492;13.416;2023-07-16T00:22:28;24.60;67.90
80279;DHT22;70683;52.492;13.416;2023-07-16T00:24:54;24.60;67.30
80279;DHT22;70683;52.492;13.416;2023-07-16T00:27:21;24.60;67.50
80279;DHT22;70683;52.492;13.416;2023-07-16T00:29:48;24.70;67.40
80279;DHT22;70683;52.492;13.416;2023-07-16T00:32:14;24.70;67.50
80279;DHT22;70683;52.492;13.416;2023-07-16T00:34:41;24.70;68.00
80279;DHT22;70683;52.492;13.416;2023-07-16T00:37:08;24.70;67.90
80279;DHT22;70683;52.492;13.416;2023-07-16T00:39:34;24.70;68.10
80279;DHT22;70683;52.492;13.416;2023-07-16T00:42:01;24.70;68.00
80279;DHT22;70683;52.492;13.416;2023-07-16T00:44:28;24.70;68.80
80279;DHT22;70683;52.492;13.416;2023-07-16T00:46:54;24.80;68.90
80279;DHT22;70683;52.492;13.416;2023-07-16T00:49:23;24.80;68.30
80279;DHT22;70683;52.492;13.416;2023-07-16T00:51:52;24.80;68.00
80279;DHT22;70683;52.492;13.416;2023-07-16T00:54:19;24.70;68.40
80279;DHT22;70683;52.492;13.416;2023-07-16T00:56:46;24.70;68.50
80279;DHT22;70683;52.492;13.416;2023-07-16T00:59:13;24.70;68.50
80279;DHT22;70683;52.492;13.416;2023-07-16T01:01:40;24.70;68.70
80279;DHT22;70683;52.492;13.416;2023-07-16T01:04:06;24.70;68.90
80279;DHT22;70683;52.492;13.416;2023-07-16T01:06:38;24.70;68.60
80279;DHT22;70683;52.492;13.416;2023-07-16T01:09:10;24.60;68.70
80279;DHT22;70683;52.492;13.416;2023-07-16T01:11:37;24.60;69.40
80279;DHT22;70683;52.492;13.416;2023-07-16T01:14:07;24.60;69.50
80279;DHT22;70683;52.492;13.416;2023-07-16T01:16:34;24.50;69.90
80279;DHT22;70683;52.492;13.416;2023-07-16T01:19:01;24.50;69.90
80279;DHT22;70683;52.492;13.416;2023-07-16T01:21:34;24.50;69.80
80279;DHT22;70683;52.492;13.416;2023-07-16T01:24:12;24.50;69.60
80279;DHT22;70683;52.492;13.416;2023-07-16T01:26:57;24.50;69.10
80279;DHT22;70683;52.492;13.416;2023-07-16T01:29:34;24.40;69.20
80279;DHT22;70683;52.492;13.416;2023-07-16T01:32:03;24.30;69.50
80279;DHT22;70683;52.492;13.416;2023-07-16T01:34:33;24.20;70.10
80279;DHT22;70683;52.492;13.416;2023-07-16T01:37:02;24.10;70.60
80279;DHT22;70683;52.492;13.416;2023-07-16T01:39:31;24.00;70.80
80279;DHT22;70683;52.492;13.416;2023-07-16T01:42:00;24.00;71.20
80279;DHT22;70683;52.492;13.416;2023-07-16T01:44:27;24.00;70.90
80279;DHT22;70683;52.492;13.416;2023-07-16T01:47:05;24.00;70.80
80279;DHT22;70683;52.492;13.416;2023-07-16T01:49:33;24.00;71.70
80279;DHT22;70683;52.492;13.416;2023-07-16T01:52:01;24.00;71.40
80279;DHT22;70683;52.492;13.416;2023-07-16T01:54:29;24.00;71.30
80279;DHT22;70683;52.492;13.416;2023-07-16T01:56:56;24.00;71.10
80279;DHT22;70683;52.492;13.416;2023-07-16T01:59:22;24.10;70.40
80279;DHT22;70683;52.492;13.416;2023-07-16T02:01:49;24.00;70.10
80279;DHT22;70683;52.492;13.416;2023-07-16T02:04:16;24.10;69.80
80279;DHT22;70683;52.492;13.416;2023-07-16T02:06:42;24.00;69.30
80279;DHT22;70683;52.492;13.416;2023-07-16T02:09:10;24.10;68.80
80279;DHT22;70683;52.492;13.416;2023-07-16T02:11:37;24.10;68.30
80279;DHT22;70683;52.492;13.416;2023-07-16T02:14:03;24.20;67.90
80279;DHT22;70683;52.492;13.416;2023-07-16T02:16:30;24.20;67.50
80279;DHT22;70683;52.492;13.416;2023-07-16T02:18:56;24.20;66.80
80279;DHT22;70683;52.492;13.416;2023-07-16T02:21:23;24.30;67.00
80279;DHT22;70683;52.492;13.416;2023-07-16T02:23:50;24.30;68.00
80279;DHT22;70683;52.492;13.416;2023-07-16T02:26:16;24.10;69.50
80279;DHT22;70683;52.492;13.416;2023-07-16T02:28:43;23.90;71.20
80279;DHT22;70683;52.492;13.416;2023-07-16T02:31:09;23.70;72.50
80279;DHT22;70683;52.492;13.416;2023-07-16T02:33:36;23.50;74.40
80279;DHT22;70683;52.492;13.416;2023-07-16T02:36:03;23.30;75.70
80279;DHT22;70683;52.492;13.416;2023-07-16T02:38:30;23.10;76.80
80279;DHT22;70683;52.492;13.416;2023-07-16T02:40:57;23.00;77.80
80279;DHT22;70683;52.492;13.416;2023-07-16T02:43:23;22.90;78.40
80279;DHT22;70683;52.492;13.416;2023-07-16T02:45:50;22.80;78.70
80279;DHT22;70683;52.492;13.416;2023-07-16T02:48:17;22.70;78.70
80279;DHT22;70683;52.492;13.416;2023-07-16T02:50:43;22.70;79.40
80279;DHT22;70683;52.492;13.416;2023-07-16T02:53:10;22.60;80.30
80279;DHT22;70683;52.492;13.416;2023-07-16T02:55:37;22.60;81.50
80279;DHT22;70683;52.492;13.416;2023-07-16T02:58:03;22.50;81.50
80279;DHT22;70683;52.492;13.416;2023-07-16T03:00:31;22.50;82.40
80279;DHT22;70683;52.492;13.416;2023-07-16T03:02:58;22.50;82.50
80279;DHT22;70683;52.492;13.416;2023-07-16T03:05:26;22.50;82.80
80279;DHT22;70683;52.492;13.416;2023-07-16T03:07:53;22.50;83.20
80279;DHT22;70683;52.492;13.416;2023-07-16T03:10:21;22.50;83.00
80279;DHT22;70683;52.492;13.416;2023-07-16T03:12:48;22.50;83.00
80279;DHT22;70683;52.492;13.416;2023-07-16T03:15:15;22.40;83.00
80279;DHT22;70683;52.492;13.416;2023-07-16T03:17:41;22.40;82.70
80279;DHT22;70683;52.492;13.416;2023-07-16T03:20:09;22.40;82.70
80279;DHT22;70683;52.492;13.416;2023-07-16T03:22:36;22.30;82.90
80279;DHT22;70683;52.492;13.416;2023-07-16T03:25:03;22.20;83.20
80279;DHT22;70683;52.492;13.416;2023-07-16T03:27:30;22.20;83.90
80279;DHT22;70683;52.492;13.416;2023-07-16T03:29:57;22.20;83.30
80279;DHT22;70683;52.492;13.416;2023-07-16T03:32:24;22.10;83.50
80279;DHT22;70683;52.492;13.416;2023-07-16T03:34:50;22.10;83.40
80279;DHT22;70683;52.492;13.416;2023-07-16T03:37:17;22.10;83.80
80279;DHT22;70683;52.492;13.416;2023-07-16T03:39:44;22.10;84.50
80279;DHT22;70683;52.492;13.416;2023-07-16T03:42:10;22.00;85.00
80279;DHT22;70683;52.492;13.416;2023-07-16T03:44:37;22.10;84.30
80279;DHT22;70683;52.492;13.416;2023-07-16T03:47:04;22.10;84.10
80279;DHT22;70683;52.492;13.416;2023-07-16T03:49:30;22.10;83.60
80279;DHT22;70683;52.492;13.416;2023-07-16T03:51:57;22.10;83.40
80279;DHT22;70683;52.492;13.416;2023-07-16T03:54:24;22.10;83.50
80279;DHT22;70683;52.492;13.416;2023-07-16T03:56:50;22.00;84.00
80279;DHT22;70683;52.492;13.416;2023-07-16T03:59:17;22.00;85.00
80279;DHT22;70683;52.492;13.416;2023-07-16T04:01:43;22.00;85.10
80279;DHT22;70683;52.492;13.416;2023-07-16T04:04:10;22.00;84.90
80279;DHT22;70683;52.492;13.416;2023-07-16T04:06:37;22.00;84.90
80279;DHT22;70683;52.492;13.416;2023-07-16T04:09:03;22.00;84.70
80279;DHT22;70683;52.492;13.416;2023-07-16T04:11:30;22.00;84.60
80279;DHT22;70683;52.492;13.416;2023-07-16T04:13:57;22.10;84.10
80279;DHT22;70683;52.492;13.416;2023-07-16T04:16:23;22.10;83.80
80279;DHT22;70683;52.492;13.416;2023-07-16T04:18:50;22.10;83.50
80279;DHT22;70683;52.492;13.416;2023-07-16T04:21:17;22.20;83.50
80279;DHT22;70683;52.492;13.416;2023-07-16T04:23:43;22.20;83.50
80279;DHT22;70683;52.492;13.416;2023-07-16T04:26:10;22.20;83.10
80279;DHT22;70683;52.492;13.416;2023-07-16T04:28:36;22.20;83.00
80279;DHT22;70683;52.492;13.416;2023-07-16T04:31:05;22.30;83.30
80279;DHT22;70683;52.492;13.416;2023-07-16T04:33:31;22.30;82.80
80279;DHT22;70683;52.492;13.416;2023-07-16T04:35:58;22.30;83.90
80279;DHT22;70683;52.492;13.416;2023-07-16T04:38:25;22.30;83.30
80279;DHT22;70683;52.492;13.416;2023-07-16T04:40:52;22.30;83.80
80279;DHT22;70683;52.492;13.416;2023-07-16T04:43:19;22.30;83.20
80279;DHT22;70683;52.492;13.416;2023-07-16T04:45:45;22.30;83.20
80279;DHT22;70683;52.492;13.416;2023-07-16T04:48:13;22.30;83.20
80279;DHT22;70683;52.492;13.416;2023-07-16T04:50:39;22.30;83.30
80279;DHT22;70683;52.492;13.416;2023-07-16T04:53:06;22.30;82.40
80279;DHT22;70683;52.492;13.416;2023-07-16T04:55:36;22.30;82.60
80279;DHT22;70683;52.492;13.416;2023-07-16T04:58:04;22.30;83.10
80279;DHT22;70683;52.492;13.416;2023-07-16T05:00:32;22.30;83.10
80279;DHT22;70683;52.492;13.416;2023-07-16T05:02:59;22.30;83.70
80279;DHT22;70683;52.492;13.416;2023-07-16T05:05:25;22.30;83.10
80279;DHT22;70683;52.492;13.416;2023-07-16T05:07:52;22.40;82.40
80279;DHT22;70683;52.492;13.416;2023-07-16T05:10:19;22.40;82.40
80279;DHT22;70683;52.492;13.416;2023-07-16T05:12:45;22.50;82.90
80279;DHT22;70683;52.492;13.416;2023-07-16T05:15:12;22.50;82.70
80279;DHT22;70683;52.492;13.416;2023-07-16T05:17:39;22.50;82.40
80279;DHT22;70683;52.492;13.416;2023-07-16T05:20:07;22.50;82.30
80279;DHT22;70683;52.492;13.416;2023-07-16T05:22:33;22.60;82.30
80279;DHT22;70683;52.492;13.416;2023-07-16T05:25:00;22.60;81.80
80279;DHT22;70683;52.492;13.416;2023-07-16T05:27:27;22.70;81.30
80279;DHT22;70683;52.492;13.416;2023-07-16T05:29:54;22.80;80.90
80279;DHT22;70683;52.492;13.416;2023-07-16T05:32:21;22.90;80.60
80279;DHT22;70683;52.492;13.416;2023-07-16T05:34:48;23.00;79.90
80279;DHT22;70683;52.492;13.416;2023-07-16T05:37:15;23.20;79.10
80279;DHT22;70683;52.492;13.416;2023-07-16T05:39:42;23.40;78.40
80279;DHT22;70683;52.492;13.416;2023-07-16T05:42:09;23.60;78.10
80279;DHT22;70683;52.492;13.416;2023-07-16T05:44:35;23.60;77.50
80279;DHT22;70683;52.492;13.416;2023-07-16T05:47:02;23.70;76.90
80279;DHT22;70683;52.492;13.416;2023-07-16T05:49:29;23.70;76.60
80279;DHT22;70683;52.492;13.416;2023-07-16T05:51:55;23.80;76.10
80279;DHT22;70683;52.492;13.416;2023-07-16T05:54:22;23.80;76.00
80279;DHT22;70683;52.492;13.416;2023-07-16T05:56:49;23.90;75.40
80279;DHT22;70683;52.492;13.416;2023-07-16T05:59:16;23.90;75.30
80279;DHT22;70683;52.492;13.416;2023-07-16T06:01:42;23.90;74.80
80279;DHT22;70683;52.492;13.416;2023-07-16T06:04:09;23.90;75.20
80279;DHT22;70683;52.492;13.416;2023-07-16T06:06:36;24.10;74.40
80279;DHT22;70683;52.492;13.416;2023-07-16T06:09:02;24.20;74.60
80279;DHT22;70683;52.492;13.416;2023-07-16T06:11:29;24.30;73.70
80279;DHT22;70683;52.492;13.416;2023-07-16T06:13:56;24.50;73.30
80279;DHT22;70683;52.492;13.416;2023-07-16T06:16:22;24.60;73.10
80279;DHT22;70683;52.492;13.416;2023-07-16T06:18:49;24.80;71.50
80279;DHT22;70683;52.492;13.416;2023-07-16T06:21:15;24.90;71.40
80279;DHT22;70683;52.492;13.416;2023-07-16T06:23:42;25.10;70.70
80279;DHT22;70683;52.492;13.416;2023-07-16T06:26:09;25.20;70.50
80279;DHT22;70683;52.492;13.416;2023-07-16T06:28:35;25.30;70.00
80279;DHT22;70683;52.492;13.416;2023-07-16T06:31:02;25.40;69.40
80279;DHT22;70683;52.492;13.416;2023-07-16T06:33:29;25.60;68.60
80279;DHT22;70683;52.492;13.416;2023-07-16T06:35:56;25.70;68.00
80279;DHT22;70683;52.492;13.416;2023-07-16T06:38:22;25.90;66.50
80279;DHT22;70683;52.492;13.416;2023-07-16T06:40:50;26.10;65.90
80279;DHT22;70683;52.492;13.416;2023-07-16T06:43:17;26.30;65.30
80279;DHT22;70683;52.492;13.416;2023-07-16T06:45:44;26.40;64.90
80279;DHT22;70683;52.492;13.416;2023-07-16T06:48:10;26.50;63.70
80279;DHT22;70683;52.492;13.416;2023-07-16T06:50:37;26.70;63.00
80279;DHT22;70683;52.492;13.416;2023-07-16T06:53:04;26.90;61.90
80279;DHT22;70683;52.492;13.416;2023-07-16T06:55:30;27.10;61.40
80279;DHT22;70683;52.492;13.416;2023-07-16T06:57:57;27.30;61.10
80279;DHT22;70683;52.492;13.416;2023-07-16T07:00:24;27.60;60.30
80279;DHT22;70683;52.492;13.416;2023-07-16T07:02:50;27.70;58.90
80279;DHT22;70683;52.492;13.416;2023-07-16T07:05:17;27.70;58.90
80279;DHT22;70683;52.492;13.416;2023-07-16T07:07:44;27.70;59.00
80279;DHT22;70683;52.492;13.416;2023-07-16T07:10:12;27.80;58.00
80279;DHT22;70683;52.492;13.416;2023-07-16T07:12:39;27.90;57.70
80279;DHT22;70683;52.492;13.416;2023-07-16T07:15:08;27.80;57.40
80279;DHT22;70683;52.492;13.416;2023-07-16T07:17:35;27.70;57.50
80279;DHT22;70683;52.492;13.416;2023-07-16T07:20:02;27.60;57.50
80279;DHT22;70683;52.492;13.416;2023-07-16T07:22:29;27.50;58.00
80279;DHT22;70683;52.492;13.416;2023-07-16T07:24:56;27.60;58.10
80279;DHT22;70683;52.492;13.416;2023-07-16T07:27:23;27.60;58.30
80279;DHT22;70683;52.492;13.416;2023-07-16T07:29:49;27.60;57.80
80279;DHT22;70683;52.492;13.416;2023-07-16T07:32:19;27.60;57.80
80279;DHT22;70683;52.492;13.416;2023-07-16T07:34:46;27.80;57.40
80279;DHT22;70683;52.492;13.416;2023-07-16T07:37:13;27.80;56.80
80279;DHT22;70683;52.492;13.416;2023-07-16T07:39:40;27.70;57.20
80279;DHT22;70683;52.492;13.416;2023-07-16T07:42:07;27.90;57.00
80279;DHT22;70683;52.492;13.416;2023-07-16T07:44:35;28.50;56.30
80279;DHT22;70683;52.492;13.416;2023-07-16T07:47:01;29.50;54.20
80279;DHT22;70683;52.492;13.416;2023-07-16T07:49:28;30.10;52.40
80279;DHT22;70683;52.492;13.416;2023-07-16T07:51:55;30.80;50.50
80279;DHT22;70683;52.492;13.416;2023-07-16T07:54:21;31.20;49.20
80279;DHT22;70683;52.492;13.416;2023-07-16T07:56:48;31.30;48.40
80279;DHT22;70683;52.492;13.416;2023-07-16T07:59:14;30.90;48.50
80279;DHT22;70683;52.492;13.416;2023-07-16T08:01:41;30.40;49.00
80279;DHT22;70683;52.492;13.416;2023-07-16T08:04:08;29.80;49.80
80279;DHT22;70683;52.492;13.416;2023-07-16T08:06:34;29.40;50.30
80279;DHT22;70683;52.492;13.416;2023-07-16T08:09:01;29.10;51.10
80279;DHT22;70683;52.492;13.416;2023-07-16T08:11:28;29.10;52.30
80279;DHT22;70683;52.492;13.416;2023-07-16T08:13:55;29.30;51.40
80279;DHT22;70683;52.492;13.416;2023-07-16T08:16:21;29.70;51.00
80279;DHT22;70683;52.492;13.416;2023-07-16T08:18:48;29.90;50.50
80279;DHT22;70683;52.492;13.416;2023-07-16T08:21:15;29.70;50.20
80279;DHT22;70683;52.492;13.416;2023-07-16T08:23:44;29.40;49.50
80279;DHT22;70683;52.492;13.416;2023-07-16T08:26:11;29.30;48.00
80279;DHT22;70683;52.492;13.416;2023-07-16T08:28:38;29.20;47.80
80279;DHT22;70683;52.492;13.416;2023-07-16T08:31:05;29.10;48.40
80279;DHT22;70683;52.492;13.416;2023-07-16T08:33:32;28.70;48.40
80279;DHT22;70683;52.492;13.416;2023-07-16T08:35:58;28.50;49.20
80279;DHT22;70683;52.492;13.416;2023-07-16T08:38:25;28.80;49.60
80279;DHT22;70683;52.492;13.416;2023-07-16T08:40:52;29.10;48.10
80279;DHT22;70683;52.492;13.416;2023-07-16T08:43:19;29.50;47.40
80279;DHT22;70683;52.492;13.416;2023-07-16T08:45:46;30.00;46.70
80279;DHT22;70683;52.492;13.416;2023-07-16T08:48:17;30.60;45.90
80279;DHT22;70683;52.492;13.416;2023-07-16T08:50:48;30.90;44.20
80279;DHT22;70683;52.492;13.416;2023-07-16T08:53:16;30.90;43.50
80279;DHT22;70683;52.492;13.416;2023-07-16T08:55:45;30.60;42.60
80279;DHT22;70683;52.492;13.416;2023-07-16T08:58:14;30.40;43.80
80279;DHT22;70683;52.492;13.416;2023-07-16T09:00:43;30.40;42.90
80279;DHT22;70683;52.492;13.416;2023-07-16T09:03:12;30.30;42.90
80279;DHT22;70683;52.492;13.416;2023-07-16T09:05:39;30.70;42.40
80279;DHT22;70683;52.492;13.416;2023-07-16T09:08:06;30.90;41.80
80279;DHT22;70683;52.492;13.416;2023-07-16T09:10:33;31.30;41.30
80279;DHT22;70683;52.492;13.416;2023-07-16T09:13:00;31.50;40.80
80279;DHT22;70683;52.492;13.416;2023-07-16T09:15:29;31.50;41.00
80279;DHT22;70683;52.492;13.416;2023-07-16T09:17:56;31.50;41.20
80279;DHT22;70683;52.492;13.416;2023-07-16T09:20:22;31.90;42.20
80279;DHT22;70683;52.492;13.416;2023-07-16T09:22:50;32.50;40.10
80279;DHT22;70683;52.492;13.416;2023-07-16T09:25:18;32.50;38.50
80279;DHT22;70683;52.492;13.416;2023-07-16T09:27:48;32.30;39.70
80279;DHT22;70683;52.492;13.416;2023-07-16T09:30:16;32.10;39.50
80279;DHT22;70683;52.492;13.416;2023-07-16T09:32:43;32.00;39.90
80279;DHT22;70683;52.492;13.416;2023-07-16T09:35:13;32.00;40.10
80279;DHT22;70683;52.492;13.416;2023-07-16T09:37:42;32.40;39.80
80279;DHT22;70683;52.492;13.416;2023-07-16T09:40:10;32.30;40.00
80279;DHT22;70683;52.492;13.416;2023-07-16T09:42:38;32.30;39.30
80279;DHT22;70683;52.492;13.416;2023-07-16T09:45:06;32.20;38.60
80279;DHT22;70683;52.492;13.416;2023-07-16T09:47:35;32.00;39.00
80279;DHT22;70683;52.492;13.416;2023-07-16T09:50:02;31.50;39.40
80279;DHT22;70683;52.492;13.416;2023-07-16T09:52:31;31.10;40.40
80279;DHT22;70683;52.492;13.416;2023-07-16T09:55:02;31.10;40.60
80279;DHT22;70683;52.492;13.416;2023-07-16T09:57:33;31.10;40.60
80279;DHT22;70683;52.492;13.416;2023-07-16T10:00:04;31.40;40.10
80279;DHT22;70683;52.492;13.416;2023-07-16T10:02:33;31.70;39.70
80279;DHT22;70683;52.492;13.416;2023-07-16T10:05:18;32.00;37.90
80279;DHT22;70683;52.492;13.416;2023-07-16T10:07:55;31.90;37.60
80279;DHT22;70683;52.492;13.416;2023-07-16T10:10:27;31.50;38.00
80279;DHT22;70683;52.492;13.416;2023-07-16T10:13:01;31.50;38.70
80279;DHT22;70683;52.492;13.416;2023-07-16T10:15:27;31.60;37.60
80279;DHT22;70683;52.492;13.416;2023-07-16T10:17:54;31.40;38.30
80279;DHT22;70683;52.492;13.416;2023-07-16T10:20:29;31.70;38.70
80279;DHT22;70683;52.492;13.416;2023-07-16T10:22:56;32.00;38.00
80279;DHT22;70683;52.492;13.416;2023-07-16T10:25:26;32.40;37.30
80279;DHT22;70683;52.492;13.416;2023-07-16T10:27:54;32.70;36.70
80279;DHT22;70683;52.492;13.416;2023-07-16T10:30:21;32.90;37.30
80279;DHT22;70683;52.492;13.416;2023-07-16T10:32:51;32.90;37.50
80279;DHT22;70683;52.492;13.416;2023-07-16T10:35:19;32.90;36.90
80279;DHT22;70683;52.492;13.416;2023-07-16T10:37:46;33.10;36.40
80279;DHT22;70683;52.492;13.416;2023-07-16T10:40:13;33.00;36.30
80279;DHT22;70683;52.492;13.416;2023-07-16T10:42:41;32.70;35.60
80279;DHT22;70683;52.492;13.416;2023-07-16T10:45:10;32.50;36.40
80279;DHT22;70683;52.492;13.416;2023-07-16T10:47:38;32.50;36.70
80279;DHT22;70683;52.492;13.416;2023-07-16T10:50:07;32.30;36.70
80279;DHT22;70683;52.492;13.416;2023-07-16T10:52:36;32.00;37.30
80279;DHT22;70683;52.492;13.416;2023-07-16T10:55:04;31.80;37.70
80279;DHT22;70683;52.492;13.416;2023-07-16T10:57:31;31.40;38.90
80279;DHT22;70683;52.492;13.416;2023-07-16T10:59:59;31.30;38.30
80279;DHT22;70683;52.492;13.416;2023-07-16T11:02:26;31.10;38.80
80279;DHT22;70683;52.492;13.416;2023-07-16T11:04:54;30.90;39.30
80279;DHT22;70683;52.492;13.416;2023-07-16T11:07:21;30.60;40.00
80279;DHT22;70683;52.492;13.416;2023-07-16T11:09:51;30.40;39.40
80279;DHT22;70683;52.492;13.416;2023-07-16T11:12:20;30.40;40.00
80279;DHT22;70683;52.492;13.416;2023-07-16T11:14:50;30.60;39.90
80279;DHT22;70683;52.492;13.416;2023-07-16T11:17:17;30.70;40.40
80279;DHT22;70683;52.492;13.416;2023-07-16T11:19:46;31.00;40.60
80279;DHT22;70683;52.492;13.416;2023-07-16T11:22:14;31.60;40.00
80279;DHT22;70683;52.492;13.416;2023-07-16T11:24:44;32.20;38.50
80279;DHT22;70683;52.492;13.416;2023-07-16T11:27:16;32.60;37.50
80279;DHT22;70683;52.492;13.416;2023-07-16T11:29:46;32.50;36.80
80279;DHT22;70683;52.492;13.416;2023-07-16T11:32:46;32.60;36.90
80279;DHT22;70683;52.492;13.416;2023-07-16T11:34:59;32.50;38.50
80279;DHT22;70683;52.492;13.416;2023-07-16T11:37:27;32.90;37.50
80279;DHT22;70683;52.492;13.416;2023-07-16T11:39:57;33.30;36.70
80279;DHT22;70683;52.492;13.416;2023-07-16T11:42:28;33.50;36.50
80279;DHT22;70683;52.492;13.416;2023-07-16T11:44:56;33.90;35.90
80279;DHT22;70683;52.492;13.416;2023-07-16T11:47:22;34.60;35.30
80279;DHT22;70683;52.492;13.416;2023-07-16T11:49:49;35.20;32.90
80279;DHT22;70683;52.492;13.416;2023-07-16T11:52:22;35.70;32.10
80279;DHT22;70683;52.492;13.416;2023-07-16T11:54:49;36.60;30.40
80279;DHT22;70683;52.492;13.416;2023-07-16T11:57:16;37.10;28.60
80279;DHT22;70683;52.492;13.416;2023-07-16T11:59:43;37.00;28.00
80279;DHT22;70683;52.492;13.416;2023-07-16T12:02:10;36.70;27.80
80279;DHT22;70683;52.492;13.416;2023-07-16T12:04:36;36.60;27.70
80279;DHT22;70683;52.492;13.416;2023-07-16T12:07:03;36.20;27.50
80279;DHT22;70683;52.492;13.416;2023-07-16T12:09:30;35.50;27.80
80279;DHT22;70683;52.492;13.416;2023-07-16T12:11:57;35.30;28.00
80279;DHT22;70683;52.492;13.416;2023-07-16T12:14:24;35.10;27.40
80279;DHT22;70683;52.492;13.416;2023-07-16T12:16:50;34.90;27.70
80279;DHT22;70683;52.492;13.416;2023-07-16T12:19:17;35.40;26.70
80279;DHT22;70683;52.492;13.416;2023-07-16T12:21:44;36.60;25.80
80279;DHT22;70683;52.492;13.416;2023-07-16T12:24:11;37.70;23.50
80279;DHT22;70683;52.492;13.416;2023-07-16T12:26:37;38.90;23.00
80279;DHT22;70683;52.492;13.416;2023-07-16T12:29:04;40.40;21.90
80279;DHT22;70683;52.492;13.416;2023-07-16T12:31:31;41.30;20.80
80279;DHT22;70683;52.492;13.416;2023-07-16T12:33:59;42.20;19.80
80279;DHT22;70683;52.492;13.416;2023-07-16T12:36:25;43.00;19.20
80279;DHT22;70683;52.492;13.416;2023-07-16T12:38:52;43.10;19.30
80279;DHT22;70683;52.492;13.416;2023-07-16T12:41:19;43.90;18.80
80279;DHT22;70683;52.492;13.416;2023-07-16T12:43:46;44.20;18.20
80279;DHT22;70683;52.492;13.416;2023-07-16T12:46:13;44.60;17.80
80279;DHT22;70683;52.492;13.416;2023-07-16T12:48:40;44.50;18.10
80279;DHT22;70683;52.492;13.416;2023-07-16T12:51:06;44.80;17.00
80279;DHT22;70683;52.492;13.416;2023-07-16T12:53:33;45.20;16.70
80279;DHT22;70683;52.492;13.416;2023-07-16T12:56:00;45.00;16.30
80279;DHT22;70683;52.492;13.416;2023-07-16T12:58:26;43.50;17.30
80279;DHT22;70683;52.492;13.416;2023-07-16T13:00:53;43.10;18.10
80279;DHT22;70683;52.492;13.416;2023-07-16T13:03:19;43.60;17.60
80279;DHT22;70683;52.492;13.416;2023-07-16T13:05:47;43.10;17.30
80279;DHT22;70683;52.492;13.416;2023-07-16T13:08:14;42.20;17.90
80279;DHT22;70683;52.492;13.416;2023-07-16T13:10:40;41.30;18.20
80279;DHT22;70683;52.492;13.416;2023-07-16T13:13:08;40.10;19.20
80279;DHT22;70683;52.492;13.416;2023-07-16T13:15:34;38.80;20.10
80279;DHT22;70683;52.492;13.416;2023-07-16T13:18:01;37.70;21.60
80279;DHT22;70683;52.492;13.416;2023-07-16T13:20:28;37.10;22.10
80279;DHT22;70683;52.492;13.416;2023-07-16T13:22:56;36.30;23.40
80279;DHT22;70683;52.492;13.416;2023-07-16T13:25:23;35.70;23.50
80279;DHT22;70683;52.492;13.416;2023-07-16T13:27:50;35.60;24.10
80279;DHT22;70683;52.492;13.416;2023-07-16T13:30:16;36.50;23.60
80279;DHT22;70683;52.492;13.416;2023-07-16T13:32:43;37.60;22.80
80279;DHT22;70683;52.492;13.416;2023-07-16T13:35:10;38.20;21.70
80279;DHT22;70683;52.492;13.416;2023-07-16T13:37:37;38.30;21.60
80279;DHT22;70683;52.492;13.416;2023-07-16T13:40:04;37.50;22.00
80279;DHT22;70683;52.492;13.416;2023-07-16T13:42:31;36.70;22.60
80279;DHT22;70683;52.492;13.416;2023-07-16T13:44:57;36.20;23.50
80279;DHT22;70683;52.492;13.416;2023-07-16T13:47:24;36.90;23.20
80279;DHT22;70683;52.492;13.416;2023-07-16T13:49:51;37.80;22.40
80279;DHT22;70683;52.492;13.416;2023-07-16T13:52:17;38.00;22.10
80279;DHT22;70683;52.492;13.416;2023-07-16T13:54:44;37.60;22.50
80279;DHT22;70683;52.492;13.416;2023-07-16T13:57:11;36.80;22.80
80279;DHT22;70683;52.492;13.416;2023-07-16T13:59:37;36.10;23.40
80279;DHT22;70683;52.492;13.416;2023-07-16T14:02:04;35.50;24.00
80279;DHT22;70683;52.492;13.416;2023-07-16T14:04:31;35.00;24.30
80279;DHT22;70683;52.492;13.416;2023-07-16T14:06:58;34.60;24.20
80279;DHT22;70683;52.492;13.416;2023-07-16T14:09:25;34.10;24.50
80279;DHT22;70683;52.492;13.416;2023-07-16T14:11:52;33.80;25.10
80279;DHT22;70683;52.492;13.416;2023-07-16T14:14:21;33.60;25.50
80279;DHT22;70683;52.492;13.416;2023-07-16T14:16:47;33.30;25.90
80279;DHT22;70683;52.492;13.416;2023-07-16T14:19:14;33.10;25.60
80279;DHT22;70683;52.492;13.416;2023-07-16T14:21:40;33.00;25.80
80279;DHT22;70683;52.492;13.416;2023-07-16T14:24:08;32.90;26.20
80279;DHT22;70683;52.492;13.416;2023-07-16T14:26:35;32.70;26.50
80279;DHT22;70683;52.492;13.416;2023-07-16T14:29:02;32.50;25.60
80279;DHT22;70683;52.492;13.416;2023-07-16T14:31:29;32.30;25.90
80279;DHT22;70683;52.492;13.416;2023-07-16T14:33:55;32.30;25.70
80279;DHT22;70683;52.492;13.416;2023-07-16T14:36:22;32.10;25.80
80279;DHT22;70683;52.492;13.416;2023-07-16T14:38:49;32.00;26.30
80279;DHT22;70683;52.492;13.416;2023-07-16T14:41:15;31.90;26.40
80279;DHT22;70683;52.492;13.416;2023-07-16T14:43:42;31.90;26.80
80279;DHT22;70683;52.492;13.416;2023-07-16T14:46:10;31.80;27.00
80279;DHT22;70683;52.492;13.416;2023-07-16T14:48:39;31.80;26.40
80279;DHT22;70683;52.492;13.416;2023-07-16T14:51:06;31.70;26.80
80279;DHT22;70683;52.492;13.416;2023-07-16T14:53:32;31.50;26.20
80279;DHT22;70683;52.492;13.416;2023-07-16T14:55:59;31.40;26.50
80279;DHT22;70683;52.492;13.416;2023-07-16T14:58:26;31.40;27.40
80279;DHT22;70683;52.492;13.416;2023-07-16T15:00:52;31.50;26.70
80279;DHT22;70683;52.492;13.416;2023-07-16T15:03:19;31.60;26.80
80279;DHT22;70683;52.492;13.416;2023-07-16T15:05:46;31.70;26.70
80279;DHT22;70683;52.492;13.416;2023-07-16T15:08:13;31.70;26.80
80279;DHT22;70683;52.492;13.416;2023-07-16T15:10:40;31.60;26.40
80279;DHT22;70683;52.492;13.416;2023-07-16T15:13:06;31.60;26.10
80279;DHT22;70683;52.492;13.416;2023-07-16T15:15:33;31.50;26.00